Time;durP1;ratioP1;P1;durP2;ratioP2;P2;SDS_P1;SDS_P2;PMS_P1;PMS_P2;Temp;Humidity;BMP_temperature;BMP_pressure;BME280_temperature;BME280_humidity;BME280_pressure;Samples;Min_cycle;Max_cycle;Signal;HPM_P1;HPM_P2
2022/04/16 00:01:17;;;;;;;0.38;0.38;;;;;;;22.71;13.47;101938.25;4974428;28;20031;-80
2022/04/16 00:03:43;;;;;;;0.20;0.20;;;;;;;22.71;13.42;101935.50;4974729;28;20031;-80
2022/04/16 00:06:09;;;;;;;0.30;0.30;;;;;;;22.70;13.66;101931.97;4973295;28;20030;-80
2022/04/16 00:08:34;;;;;;;0.30;0.30;;;;;;;22.71;14.00;101940.97;4974695;28;20027;-80
2022/04/16 00:11:00;;;;;;;0.22;0.22;;;;;;;22.72;13.49;101942.63;4973357;28;20465;-79
2022/04/16 00:13:26;;;;;;;0.30;0.30;;;;;;;22.71;13.64;101943.69;4974632;28;20134;-80
2022/04/16 00:15:54;;;;;;;0.35;0.35;;;;;;;22.72;13.57;101950.81;4973162;28;20537;-80
2022/04/16 00:18:19;;;;;;;0.30;0.30;;;;;;;22.70;13.67;101948.31;4974733;28;20037;-80
2022/04/16 00:20:45;;;;;;;0.40;0.40;;;;;;;22.71;13.53;101946.41;4973395;28;20023;-80
2022/04/16 00:23:11;;;;;;;0.40;0.40;;;;;;;22.71;13.65;101954.59;4974792;28;20035;-80
2022/04/16 00:25:36;;;;;;;0.30;0.30;;;;;;;22.72;13.65;101948.91;4974953;28;20110;-80
2022/04/16 00:28:02;;;;;;;0.40;0.40;;;;;;;22.70;13.59;101953.78;4975238;28;20030;-80
2022/04/16 00:30:27;;;;;;;0.30;0.30;;;;;;;22.71;13.64;101949.97;4975217;28;20106;-80
2022/04/16 00:32:55;;;;;;;0.38;0.38;;;;;;;22.72;13.51;101956.25;4973825;28;20027;-80
2022/04/16 00:35:21;;;;;;;0.30;0.30;;;;;;;22.69;13.69;101952.09;4989999;28;20138;-80
2022/04/16 00:37:47;;;;;;;0.30;0.30;;;;;;;22.71;13.60;101954.59;4975134;28;20023;-80
2022/04/16 00:40:12;;;;;;;0.40;0.40;;;;;;;22.71;13.69;101954.59;4996401;28;20048;-80
2022/04/16 00:42:39;;;;;;;0.20;0.20;;;;;;;22.69;13.46;101968.44;5036315;28;20472;-80
2022/04/16 00:45:05;;;;;;;0.20;0.20;;;;;;;22.69;13.65;101961.09;5037629;28;20022;-80
2022/04/16 00:47:30;;;;;;;0.30;0.30;;;;;;;22.70;13.52;101956.50;5035992;28;20108;-80
2022/04/16 00:49:56;;;;;;;0.30;0.30;;;;;;;22.68;13.58;101967.63;5037548;28;20032;-80
2022/04/16 00:52:21;;;;;;;0.30;0.30;;;;;;;22.71;13.65;101968.22;5052873;28;20388;-80
2022/04/16 00:54:48;;;;;;;0.30;0.30;;;;;;;22.71;13.52;101966.31;5037058;28;20522;-80
2022/04/16 00:57:14;;;;;;;0.30;0.30;;;;;;;22.69;13.53;101974.72;5036262;28;20034;-80
2022/04/16 00:59:39;;;;;;;0.30;0.30;;;;;;;22.71;13.57;101970.94;5052636;28;20030;-80
2022/04/16 01:02:06;;;;;;;0.30;0.30;;;;;;;22.71;13.51;101976.38;5036088;28;20418;-80
2022/04/16 01:04:31;;;;;;;0.30;0.30;;;;;;;22.70;13.59;101972.84;5052200;28;20025;-80
2022/04/16 01:06:57;;;;;;;0.22;0.22;;;;;;;22.71;13.56;101976.38;5036309;28;20025;-80
2022/04/16 01:09:22;;;;;;;0.20;0.20;;;;;;;22.69;13.67;101973.91;5036662;28;20037;-80
2022/04/16 01:11:50;;;;;;;0.35;0.35;;;;;;;22.69;13.63;101980.16;5036460;28;20030;-80
2022/04/16 01:14:18;;;;;;;0.40;0.20;;;;;;;22.70;13.43;101975.56;5036097;28;20068;-80
2022/04/16 01:16:43;;;;;;;0.30;0.30;;;;;;;22.69;13.57;101982.06;5036069;28;20053;-80
2022/04/16 01:19:10;;;;;;;0.38;0.38;;;;;;;22.71;13.57;101981.84;5036092;28;20032;-80
2022/04/16 01:21:36;;;;;;;0.38;0.38;;;;;;;22.70;13.47;101981.03;5036156;28;20036;-80
2022/04/16 01:24:01;;;;;;;0.50;0.50;;;;;;;22.71;13.81;101987.28;5035794;28;20029;-80
2022/04/16 01:26:27;;;;;;;0.30;0.30;;;;;;;22.68;13.65;101986.69;5035762;28;20083;-80
2022/04/16 01:28:52;;;;;;;0.30;0.30;;;;;;;22.68;13.57;101989.41;5051186;28;20026;-80
2022/04/16 01:31:17;;;;;;;0.30;0.30;;;;;;;22.71;13.67;101981.84;5035707;28;20408;-80
2022/04/16 01:33:43;;;;;;;0.30;0.30;;;;;;;22.68;13.52;101989.41;5036779;28;20029;-80
2022/04/16 01:36:08;;;;;;;0.20;0.20;;;;;;;22.69;13.63;101991.06;5035818;28;20056;-79
2022/04/16 01:38:34;;;;;;;0.20;0.20;;;;;;;22.68;13.63;101989.41;5035530;28;20026;-80
2022/04/16 01:40:59;;;;;;;0.40;0.40;;;;;;;22.69;13.54;101990.25;5025735;28;20401;-80
2022/04/16 01:43:25;;;;;;;0.30;0.30;;;;;;;22.69;13.63;101991.06;4998144;28;20030;-79
2022/04/16 01:45:50;;;;;;;0.30;0.30;;;;;;;22.69;13.60;101992.97;5015885;28;20370;-80
2022/04/16 01:48:16;;;;;;;0.30;0.30;;;;;;;22.69;13.66;101999.25;5015515;28;20029;-80
2022/04/16 01:50:42;;;;;;;0.28;0.28;;;;;;;22.68;13.61;101994.88;5014816;28;20026;-80
2022/04/16 01:53:07;;;;;;;0.20;0.20;;;;;;;22.69;13.59;101991.06;5014037;28;20049;-80
2022/04/16 01:55:33;;;;;;;0.20;0.20;;;;;;;22.68;13.63;101992.16;5015692;28;20034;-80
2022/04/16 01:57:58;;;;;;;0.30;0.30;;;;;;;22.69;13.53;101993.78;5015485;28;20022;-80
2022/04/16 02:00:23;;;;;;;0.30;0.30;;;;;;;22.67;13.66;101995.91;5015376;28;20380;-80
2022/04/16 02:02:50;;;;;;;0.30;0.30;;;;;;;22.68;13.52;101994.88;5013752;28;20469;-80
2022/04/16 02:05:16;;;;;;;0.30;0.30;;;;;;;22.68;13.71;102004.94;5015061;28;20152;-80
2022/04/16 02:07:41;;;;;;;0.30;0.30;;;;;;;22.68;13.77;102004.94;5015284;28;20429;-80
2022/04/16 02:10:07;;;;;;;0.40;0.40;;;;;;;22.67;13.59;102004.09;5015305;28;20034;-80
2022/04/16 02:12:33;;;;;;;0.30;0.30;;;;;;;22.67;13.72;102009.53;5013631;28;20034;-79
2022/04/16 02:14:58;;;;;;;0.20;0.20;;;;;;;22.68;13.58;102008.50;5015118;28;20479;-79
2022/04/16 02:17:24;;;;;;;0.20;0.20;;;;;;;22.66;13.64;102009.78;5014780;28;20033;-79
2022/04/16 02:19:49;;;;;;;0.40;0.40;;;;;;;22.67;13.75;102019.63;5014774;28;20116;-81
2022/04/16 02:22:16;;;;;;;0.20;0.20;;;;;;;22.67;13.68;102015.00;5014554;28;20030;-79
2022/04/16 02:24:41;;;;;;;0.30;0.30;;;;;;;22.67;13.54;102015.00;5014657;28;20538;-79
2022/04/16 02:27:07;;;;;;;0.30;0.30;;;;;;;22.67;13.73;102027.78;5014652;28;20025;-79
2022/04/16 02:29:34;;;;;;;0.30;0.30;;;;;;;22.66;13.74;102024.25;5014971;28;20029;-79
2022/04/16 02:32:03;;;;;;;0.20;0.20;;;;;;;22.63;13.72;102026.59;5014793;28;20340;-79
2022/04/16 02:34:28;;;;;;;0.35;0.35;;;;;;;22.67;13.64;102038.69;5014848;28;20030;-81
2022/04/16 02:36:54;;;;;;;0.20;0.20;;;;;;;22.66;13.71;102034.28;5014703;28;20495;-79
2022/04/16 02:39:19;;;;;;;0.52;0.30;;;;;;;22.67;13.64;102042.25;5013249;28;20026;-79
2022/04/16 02:41:45;;;;;;;0.35;0.30;;;;;;;22.67;13.70;102042.25;5028080;28;20452;-79
2022/04/16 02:47:06;;;;;;;0.30;0.30;;;;;;;22.67;13.83;102047.69;5033300;28;20028;-81
2022/04/16 02:49:36;;;;;;;0.30;0.30;;;;;;;22.66;13.74;102046.06;5034116;28;20079;-79
2022/04/16 02:52:01;;;;;;;0.50;0.40;;;;;;;22.65;13.79;102055.28;5033988;28;20509;-79
2022/04/16 02:54:27;;;;;;;0.30;0.30;;;;;;;;;;5034237;28;20037;-79
2022/04/16 02:56:54;;;;;;;0.33;0.33;;;;;;;22.63;13.82;102051.94;5033972;28;20026;-79
2022/04/16 02:59:19;;;;;;;0.30;0.30;;;;;;;22.66;13.73;102051.50;5034103;28;20270;-79
2022/04/16 03:01:44;;;;;;;0.22;0.22;;;;;;;22.65;13.81;102049.00;5034476;28;20037;-79
2022/04/16 03:04:10;;;;;;;0.75;0.30;;;;;;;22.66;13.64;102053.38;5033161;28;20022;-79
2022/04/16 03:06:35;;;;;;;0.30;0.30;;;;;;;22.66;13.61;102056.94;5034126;28;20072;-79
2022/04/16 03:09:01;;;;;;;0.30;0.30;;;;;;;22.65;13.81;102055.28;5034922;28;20091;-79
2022/04/16 03:11:26;;;;;;;0.30;0.30;;;;;;;22.66;13.85;102064.28;5033952;28;20021;-79
2022/04/16 03:13:52;;;;;;;0.20;0.20;;;;;;;22.65;13.73;102068.91;5033953;28;20030;-79
2022/04/16 03:19:01;;;;;;;0.30;0.30;;;;;;;22.65;13.61;102060.72;5034018;28;20087;-79
2022/04/16 03:21:26;;;;;;;0.28;0.28;;;;;;;22.64;13.79;102067.22;5033512;28;20033;-80
2022/04/16 03:23:52;;;;;;;0.30;0.30;;;;;;;22.65;13.66;102066.16;5033484;28;20119;-80
2022/04/16 03:26:17;;;;;;;0.80;0.30;;;;;;;22.63;13.70;102062.84;5033771;28;20025;-80
2022/04/16 03:28:42;;;;;;;0.55;0.40;;;;;;;;;;5033809;28;20383;-80
2022/04/16 03:31:08;;;;;;;0.30;0.30;;;;;;;22.64;13.75;102069.94;5033632;28;20464;-80
2022/04/16 03:33:33;;;;;;;0.30;0.30;;;;;;;22.64;13.60;102075.41;5033627;28;20460;-80
2022/04/16 03:35:59;;;;;;;0.30;0.30;;;;;;;22.63;13.66;102072.94;5033607;28;20403;-80
2022/04/16 03:38:24;;;;;;;0.30;0.30;;;;;;;22.65;13.70;102077.06;5033565;28;20025;-80
2022/04/16 03:40:50;;;;;;;0.30;0.30;;;;;;;22.63;13.60;102081.94;5040648;28;20046;-80
2022/04/16 03:43:18;;;;;;;0.50;0.50;;;;;;;22.62;13.77;102082.16;5014513;28;20057;-80
2022/04/16 03:45:43;;;;;;;0.22;0.22;;;;;;;22.63;13.70;102083.81;5013907;28;20045;-80
2022/04/16 03:48:09;;;;;;;0.30;0.30;;;;;;;22.63;13.54;102090.09;5012498;28;20433;-80
2022/04/16 03:50:34;;;;;;;0.30;0.30;;;;;;;22.62;13.67;102088.41;5013428;28;20408;-80
2022/04/16 03:53:00;;;;;;;0.30;0.30;;;;;;;22.62;13.72;102091.16;5013694;28;20030;-80
2022/04/16 04:00:55;;;;;;;;;;;;;;;22.87;13.62;102082.06;5013901;28;20099;-80
2022/04/16 04:03:21;;;;;;;0.25;0.25;;;;;;;22.68;13.61;102084.81;5012614;28;20368;-80
2022/04/16 04:05:48;;;;;;;0.40;0.40;;;;;;;22.66;13.71;102089.66;5013651;28;20022;-80
2022/04/16 04:08:14;;;;;;;0.40;0.40;;;;;;;22.61;13.68;102085.91;5012226;28;20456;-80
2022/04/16 04:10:39;;;;;;;0.32;0.32;;;;;;;;;;5014798;28;20018;-80
2022/04/16 04:13:04;;;;;;;0.30;0.30;;;;;;;22.63;13.77;102092.81;5016194;28;20049;-80
2022/04/16 04:15:30;;;;;;;0.20;0.20;;;;;;;22.60;13.88;102085.09;5023490;28;20299;-80
2022/04/16 04:17:56;;;;;;;0.30;0.30;;;;;;;22.62;13.77;102093.88;5017228;28;20461;-80
2022/04/16 04:20:22;;;;;;;0.30;0.30;;;;;;;22.61;13.87;102096.81;5017149;28;20058;-80
2022/04/16 04:22:47;;;;;;;0.30;0.30;;;;;;;22.61;13.73;102097.69;5015910;28;20069;-79
2022/04/16 04:25:12;;;;;;;0.25;0.25;;;;;;;22.63;13.31;102101.00;5016174;28;20329;-79
2022/04/16 04:27:38;;;;;;;0.30;0.30;;;;;;;22.62;13.84;102102.03;5016992;28;20350;-79
2022/04/16 04:30:04;;;;;;;0.22;0.22;;;;;;;22.60;13.69;102096.00;5017367;28;20022;-79
2022/04/16 04:32:29;;;;;;;0.28;0.28;;;;;;;22.62;13.79;102104.78;5017149;28;20083;-79
2022/04/16 04:34:55;;;;;;;0.40;0.40;;;;;;;22.62;13.72;102103.94;5017168;28;20387;-79
2022/04/16 04:37:20;;;;;;;0.30;0.30;;;;;;;22.62;13.89;102109.41;5015814;28;20413;-79
2022/04/16 04:39:46;;;;;;;0.40;0.40;;;;;;;22.63;13.84;102111.06;5016033;28;20065;-79
2022/04/16 04:42:11;;;;;;;0.30;0.30;;;;;;;22.65;13.80;102112.50;5031072;28;20045;-79
2022/04/16 04:44:37;;;;;;;0.20;0.20;;;;;;;22.63;13.84;102105.63;5035716;28;20037;-79
2022/04/16 04:47:02;;;;;;;0.30;0.30;;;;;;;22.62;13.96;102110.22;5036600;28;20383;-80
2022/04/16 04:49:27;;;;;;;0.30;0.30;;;;;;;22.62;13.88;102110.22;5036219;28;20029;-79
2022/04/16 04:51:53;;;;;;;0.35;0.35;;;;;;;22.63;13.78;102111.91;5036335;28;20025;-79
2022/04/16 04:54:18;;;;;;;0.50;0.40;;;;;;;22.63;13.80;102111.91;5036130;28;20029;-79
2022/04/16 04:56:44;;;;;;;0.30;0.30;;;;;;;22.65;13.75;102119.84;5036233;28;20036;-79
2022/04/16 04:59:10;;;;;;;0.30;0.30;;;;;;;22.63;14.02;102117.34;5035540;28;20032;-79
2022/04/16 05:01:35;;;;;;;0.20;0.20;;;;;;;22.65;13.84;102119.84;5036356;28;20442;-79
2022/04/16 05:04:01;;;;;;;0.40;0.40;;;;;;;22.65;13.80;102119.84;5036303;28;20037;-79
2022/04/16 05:06:26;;;;;;;0.30;0.30;;;;;;;22.62;13.89;102115.66;5035643;28;20120;-79
2022/04/16 05:08:51;;;;;;;0.30;0.30;;;;;;;22.65;13.86;102120.69;5035870;28;20034;-79
2022/04/16 05:11:17;;;;;;;0.35;0.35;;;;;;;22.63;13.88;102117.34;5035832;28;20033;-79
2022/04/16 05:13:42;;;;;;;0.30;0.30;;;;;;;22.66;13.74;102121.50;5036056;28;20032;-79
2022/04/16 05:16:08;;;;;;;0.25;0.25;;;;;;;22.66;13.68;102122.34;5035635;28;20034;-79
2022/04/16 05:18:34;;;;;;;0.30;0.30;;;;;;;22.65;13.66;102128.84;5035542;28;20025;-79
2022/04/16 05:20:59;;;;;;;0.30;0.30;;;;;;;22.65;13.87;102128.84;5051245;28;20021;-79
2022/04/16 05:23:24;;;;;;;0.30;0.30;;;;;;;22.66;13.78;102127.81;5036333;28;20025;-79
2022/04/16 05:25:50;;;;;;;0.28;0.28;;;;;;;22.66;13.64;102130.53;5035182;28;20029;-80
2022/04/16 05:28:16;;;;;;;0.30;0.30;;;;;;;22.66;13.71;102130.53;5051044;28;20021;-80
2022/04/16 05:30:54;;;;;;;0.20;0.20;;;;;;;22.67;13.66;102137.63;5035728;28;20029;-80
2022/04/16 05:36:04;;;;;;;0.30;0.30;;;;;;;22.68;13.67;102141.22;5035473;28;20028;-80
2022/04/16 05:38:30;;;;;;;0.20;0.20;;;;;;;22.66;13.81;102137.84;5035582;28;20104;-79
2022/04/16 05:40:55;;;;;;;0.28;0.28;;;;;;;22.69;13.60;102142.84;5045769;28;20022;-79
2022/04/16 05:43:21;;;;;;;0.20;0.20;;;;;;;22.70;13.52;102139.09;5015194;28;20045;-79
2022/04/16 05:45:46;;;;;;;0.20;0.20;;;;;;;22.71;13.53;102139.91;5015262;28;20034;-79
2022/04/16 05:48:12;;;;;;;0.28;0.28;;;;;;;22.68;13.75;102136.56;5014443;28;20530;-79
2022/04/16 05:50:37;;;;;;;0.40;0.40;;;;;;;22.68;13.57;102142.03;5015203;28;20056;-79
2022/04/16 05:53:05;;;;;;;0.20;0.20;;;;;;;22.70;13.49;102139.09;5014296;28;20049;-79
2022/04/16 05:55:31;;;;;;;0.22;0.22;;;;;;;22.71;13.45;102143.44;5015365;28;20060;-78
2022/04/16 05:57:56;;;;;;;0.20;0.20;;;;;;;22.69;13.33;102140.94;5015038;28;20030;-80
2022/04/16 06:00:22;;;;;;;0.38;0.30;;;;;;;22.74;13.50;102144.91;5014652;28;20415;-80
2022/04/16 06:02:47;;;;;;;0.30;0.30;;;;;;;22.73;13.35;102144.06;5015397;28;20476;-80
2022/04/16 06:05:13;;;;;;;0.32;0.30;;;;;;;22.74;13.48;102145.72;5015288;28;20026;-80
2022/04/16 06:07:38;;;;;;;0.30;0.30;;;;;;;22.76;13.45;102142.78;5015224;28;20396;-80
2022/04/16 06:10:04;;;;;;;0.30;0.30;;;;;;;22.77;13.48;102147.19;5015189;28;20018;-79
2022/04/16 06:12:30;;;;;;;0.25;0.25;;;;;;;22.78;13.49;102151.56;5014911;28;20587;-80
2022/04/16 06:14:55;;;;;;;0.30;0.30;;;;;;;22.79;13.45;102147.78;5015224;28;20033;-80
2022/04/16 06:17:21;;;;;;;0.30;0.30;;;;;;;22.81;13.30;102145.66;5015277;28;20037;-80
2022/04/16 06:19:46;;;;;;;0.30;0.30;;;;;;;22.83;13.28;102149.81;5015135;28;20427;-80
2022/04/16 06:22:11;;;;;;;0.35;0.32;;;;;;;22.86;13.18;102148.53;5016304;28;20531;-80
2022/04/16 06:24:41;;;;;;;0.30;0.30;;;;;;;22.87;13.33;102144.78;5015073;28;20483;-80
2022/04/16 06:27:06;;;;;;;0.30;0.30;;;;;;;22.85;13.17;102146.88;5015092;28;20026;-80
2022/04/16 06:29:32;;;;;;;0.28;0.20;;;;;;;22.86;13.14;102148.53;5014896;28;20029;-80
2022/04/16 06:31:58;;;;;;;0.22;0.20;;;;;;;22.88;13.15;102146.41;5014599;28;20329;-80
2022/04/16 06:34:23;;;;;;;0.43;0.43;;;;;;;22.90;13.14;102147.00;5014830;28;20033;-80
2022/04/16 06:36:52;;;;;;;0.20;0.20;;;;;;;22.89;13.14;102148.09;5014748;28;20030;-80
2022/04/16 06:39:17;;;;;;;0.25;0.25;;;;;;;22.90;13.15;102141.56;5014710;28;20061;-80
2022/04/16 06:41:43;;;;;;;0.30;0.30;;;;;;;22.90;12.92;102149.75;5025534;28;20539;-80
2022/04/16 06:44:08;;;;;;;0.25;0.25;;;;;;;22.90;12.95;102144.28;5034964;28;20029;-80
2022/04/16 06:46:34;;;;;;;0.25;0.25;;;;;;;22.93;12.94;102149.28;5050332;28;20026;-80
2022/04/16 06:48:59;;;;;;;0.30;0.30;;;;;;;22.93;13.14;102146.56;5034757;28;20022;-80
2022/04/16 06:51:25;;;;;;;0.20;0.20;;;;;;;22.94;12.95;102150.97;5034818;28;20025;-79
2022/04/16 06:53:51;;;;;;;0.30;0.30;;;;;;;22.97;12.99;102147.75;5035261;28;20032;-80
2022/04/16 06:56:16;;;;;;;0.20;0.20;;;;;;;22.92;13.03;102144.91;5035245;28;20380;-78
2022/04/16 06:58:42;;;;;;;0.20;0.20;;;;;;;22.93;12.88;102152.03;5034805;28;20021;-78
2022/04/16 07:01:07;;;;;;;0.30;0.30;;;;;;;22.96;13.00;102153.47;5033784;28;20037;-78
2022/04/16 07:03:32;;;;;;;0.20;0.20;;;;;;;22.99;12.89;102153.00;5050955;28;20036;-78
2022/04/16 07:05:58;;;;;;;0.20;0.20;;;;;;;22.98;12.93;102154.91;5035076;28;20032;-78
2022/04/16 07:08:23;;;;;;;0.30;0.30;;;;;;;22.94;12.80;102150.97;5034905;28;20030;-78
2022/04/16 07:10:49;;;;;;;0.28;0.28;;;;;;;23.00;12.86;102154.66;5034893;28;20379;-79
2022/04/16 07:13:14;;;;;;;0.30;0.30;;;;;;;23.00;12.81;102152.78;5034454;28;20464;-79
2022/04/16 07:15:39;;;;;;;0.30;0.30;;;;;;;23.03;12.87;102152.31;5034633;28;20030;-79
2022/04/16 07:18:05;;;;;;;0.40;0.40;;;;;;;23.03;12.97;102143.31;5034544;28;20030;-79
2022/04/16 07:20:30;;;;;;;0.30;0.30;;;;;;;23.03;12.83;102160.50;5034666;28;20464;-79
2022/04/16 07:22:56;;;;;;;0.30;0.30;;;;;;;23.01;13.12;102153.63;5033005;28;20441;-79
2022/04/16 07:25:21;;;;;;;0.20;0.20;;;;;;;23.01;13.11;102156.34;5034155;28;20029;-79
2022/04/16 07:27:47;;;;;;;0.22;0.22;;;;;;;23.00;12.97;102158.22;5033659;28;20029;-79
2022/04/16 07:30:13;;;;;;;0.30;0.30;;;;;;;23.01;13.04;102157.16;5034018;28;20032;-79
2022/04/16 07:32:39;;;;;;;0.20;0.20;;;;;;;23.01;13.04;102159.91;5033480;28;20052;-80
2022/04/16 07:35:05;;;;;;;0.20;0.20;;;;;;;23.02;13.06;102155.28;5033796;28;20026;-79
2022/04/16 07:37:30;;;;;;;0.20;0.20;;;;;;;23.03;13.00;102156.94;5033688;28;20084;-79
2022/04/16 07:39:56;;;;;;;0.20;0.20;;;;;;;23.02;12.94;102156.09;5033732;28;20037;-79
2022/04/16 07:42:25;;;;;;;0.30;0.30;;;;;;;23.03;13.04;102165.13;5017708;28;20065;-79
2022/04/16 07:44:50;;;;;;;0.30;0.30;;;;;;;23.05;12.97;102165.72;5012747;28;20104;-81
2022/04/16 07:47:16;;;;;;;0.20;0.20;;;;;;;23.04;12.92;102161.31;5014470;28;20466;-79
2022/04/16 07:49:41;;;;;;;0.40;0.40;;;;;;;23.05;13.12;102169.31;5016141;28;20527;-79
2022/04/16 07:52:06;;;;;;;0.20;0.20;;;;;;;23.05;12.86;102163.84;5017710;28;20449;-81
2022/04/16 07:54:32;;;;;;;0.57;0.40;;;;;;;23.06;13.11;102159.25;5016401;28;20026;-79
2022/04/16 07:56:57;;;;;;;0.30;0.30;;;;;;;23.07;13.06;102166.34;5016244;28;20034;-79
2022/04/16 07:59:23;;;;;;;0.30;0.30;;;;;;;23.06;12.97;102168.25;5018178;28;20030;-80
2022/04/16 08:01:48;;;;;;;0.30;0.30;;;;;;;23.09;12.93;102160.69;5017392;28;20100;-79
2022/04/16 08:04:14;;;;;;;0.25;0.25;;;;;;;23.11;12.84;102161.28;5017435;28;20041;-79
2022/04/16 08:06:39;;;;;;;0.30;0.30;;;;;;;23.12;12.89;102171.13;5017609;28;20038;-80
2022/04/16 08:09:04;;;;;;;0.30;0.30;;;;;;;23.13;12.88;102172.78;5017576;28;20380;-79
2022/04/16 08:11:33;;;;;;;0.30;0.30;;;;;;;23.11;12.98;102170.31;5017566;28;20484;-79
2022/04/16 08:13:59;;;;;;;0.20;0.20;;;;;;;23.13;12.80;102172.78;5017545;28;20026;-79
2022/04/16 08:16:24;;;;;;;0.20;0.20;;;;;;;23.12;12.96;102171.97;5017457;28;20064;-79
2022/04/16 08:18:50;;;;;;;0.30;0.30;;;;;;;23.14;12.98;102171.72;5017446;28;20029;-79
2022/04/16 08:21:15;;;;;;;0.30;0.30;;;;;;;23.16;12.83;102169.59;5017116;28;20026;-80
2022/04/16 08:23:54;;;;;;;0.30;0.30;;;;;;;23.16;12.95;102165.00;5017316;28;20033;-79
2022/04/16 08:26:20;;;;;;;0.30;0.30;;;;;;;23.16;12.92;102166.88;5015921;28;20030;-79
2022/04/16 08:28:46;;;;;;;0.20;0.20;;;;;;;23.17;12.76;102157.66;5017248;28;20036;-80
2022/04/16 08:31:12;;;;;;;0.20;0.20;;;;;;;23.20;12.64;102157.19;5015916;28;20042;-78
2022/04/16 08:33:37;;;;;;;0.32;0.32;;;;;;;23.20;12.64;102160.75;5017008;28;20037;-79
2022/04/16 08:36:03;;;;;;;0.20;0.20;;;;;;;23.20;12.82;102160.75;5016740;28;20453;-80
2022/04/16 08:38:28;;;;;;;1.33;0.30;;;;;;;23.21;12.82;102165.13;5016911;28;20025;-80
2022/04/16 08:40:55;;;;;;;0.47;0.30;;;;;;;23.21;12.45;102156.94;5019589;28;20083;-80
2022/04/16 08:43:20;;;;;;;0.20;0.20;;;;;;;23.22;12.49;102165.97;5035053;28;20052;-80
2022/04/16 08:45:46;;;;;;;0.20;0.20;;;;;;;23.22;12.56;102160.53;5036349;28;20026;-80
2022/04/16 08:48:11;;;;;;;0.20;0.20;;;;;;;23.20;12.49;102154.47;5035190;28;20041;-79
2022/04/16 08:50:37;;;;;;;0.22;0.22;;;;;;;23.24;12.31;102158.38;5034812;28;20031;-79
2022/04/16 08:53:02;;;;;;;0.30;0.30;;;;;;;23.22;12.42;102155.06;5051564;28;20021;-79
2022/04/16 08:55:28;;;;;;;0.30;0.30;;;;;;;23.24;12.48;102156.50;5036130;28;20026;-79
2022/04/16 08:57:55;;;;;;;0.20;0.20;;;;;;;23.27;12.29;102157.09;5036435;28;20030;-80
2022/04/16 09:00:20;;;;;;;0.20;0.20;;;;;;;23.26;12.28;102153.53;5035317;28;20029;-80
2022/04/16 09:02:56;;;;;;;0.30;0.30;;;;;;;23.29;12.09;102149.53;5037013;28;20036;-80
2022/04/16 09:05:22;;;;;;;0.25;0.25;;;;;;;23.28;12.28;102148.69;5035035;28;20025;-80
2022/04/16 09:07:51;;;;;;;0.20;0.20;;;;;;;23.30;12.16;102151.19;5036449;28;20111;-80
2022/04/16 09:10:17;;;;;;;0.20;0.20;;;;;;;23.29;12.02;102147.63;5035000;28;20021;-80
2022/04/16 09:12:42;;;;;;;0.15;0.15;;;;;;;23.31;12.03;102153.69;5035858;28;20085;-80
2022/04/16 09:15:12;;;;;;;0.20;0.20;;;;;;;23.32;11.97;102149.91;5034948;28;20025;-80
2022/04/16 09:17:37;;;;;;;0.20;0.20;;;;;;;23.33;11.83;102148.81;5034990;28;20030;-80
2022/04/16 09:20:12;;;;;;;0.20;0.20;;;;;;;23.35;11.76;102144.00;5034927;28;20368;-80
2022/04/16 09:22:39;;;;;;;0.20;0.20;;;;;;;23.36;11.99;102147.53;5051121;28;20109;-79
2022/04/16 09:25:16;;;;;;;0.20;0.20;;;;;;;23.35;12.02;102152.16;5035950;28;20018;-79
2022/04/16 09:27:43;;;;;;;0.28;0.28;;;;;;;23.33;11.81;102137.91;5036501;28;20025;-79
2022/04/16 09:30:09;;;;;;;0.20;0.20;;;;;;;23.34;11.77;102136.84;5035486;28;20025;-80
2022/04/16 09:32:44;;;;;;;0.20;0.20;;;;;;;23.35;11.70;102140.41;5035373;28;20025;-80
2022/04/16 09:35:38;;;;;;;0.20;0.20;;;;;;;23.35;11.67;102141.25;5035761;28;20045;-80
2022/04/16 09:38:06;;;;;;;0.25;0.25;;;;;;;23.33;11.75;102137.91;5050334;28;20496;-79
2022/04/16 09:40:36;;;;;;;0.20;0.20;;;;;;;23.28;11.63;102140.50;5034603;28;20041;-80
2022/04/16 09:43:05;;;;;;;0.20;0.20;;;;;;;23.25;11.45;102132.78;5030136;28;20088;-80
2022/04/16 09:45:32;;;;;;;0.28;0.28;;;;;;;23.30;11.35;102143.00;5015705;28;20026;-79
2022/04/16 09:47:58;;;;;;;0.20;0.20;;;;;;;23.28;11.31;102143.22;5015763;28;20037;-81
2022/04/16 09:50:29;;;;;;;0.28;0.28;;;;;;;23.27;11.29;102138.84;5014494;28;20468;-80
2022/04/16 09:53:00;;;;;;;0.25;0.20;;;;;;;23.25;11.30;102141.81;5015357;28;20501;-80
2022/04/16 09:55:26;;;;;;;0.20;0.20;;;;;;;23.27;11.36;102133.38;5014302;28;20034;-80
2022/04/16 09:57:59;;;;;;;0.25;0.25;;;;;;;23.25;11.39;102135.53;5015345;28;20034;-79
2022/04/16 10:00:26;;;;;;;0.20;0.20;;;;;;;23.25;11.22;102136.34;5015566;28;20101;-79
2022/04/16 10:02:53;;;;;;;0.20;0.20;;;;;;;23.21;11.06;102129.66;5015190;28;20038;-79
2022/04/16 10:05:19;;;;;;;0.20;0.20;;;;;;;23.19;11.41;102129.06;4998062;28;20071;-79
2022/04/16 10:07:45;;;;;;;0.38;0.20;;;;;;;23.19;11.17;102130.97;5014331;28;20415;-79
2022/04/16 10:10:30;;;;;;;0.20;0.20;;;;;;;23.21;11.23;102129.66;4997480;28;20030;-80
2022/04/16 10:13:00;;;;;;;0.20;0.20;;;;;;;23.22;11.12;102136.78;5015122;28;20033;-80
2022/04/16 10:15:48;;;;;;;0.20;0.20;;;;;;;23.22;11.05;102127.78;5014917;28;20030;-80
2022/04/16 10:18:13;;;;;;;0.30;0.30;;;;;;;23.22;11.45;102125.06;4993155;28;20121;-80
2022/04/16 10:20:49;;;;;;;0.20;0.20;;;;;;;23.22;11.30;102130.53;4993866;28;20129;-80
2022/04/16 10:23:37;;;;;;;0.30;0.30;;;;;;;23.24;11.23;102122.94;4977032;28;20073;-80
2022/04/16 10:26:10;;;;;;;0.20;0.20;;;;;;;23.20;11.26;102121.75;4993035;28;20046;-80
2022/04/16 10:28:40;;;;;;;0.40;0.20;;;;;;;23.20;11.28;102121.75;4993004;28;20055;-80
2022/04/16 10:31:18;;;;;;;0.25;0.25;;;;;;;23.20;11.24;102121.75;4992907;28;20038;-80
2022/04/16 10:33:54;;;;;;;0.20;0.20;;;;;;;23.20;11.41;102121.75;4976589;28;20050;-80
2022/04/16 10:36:24;;;;;;;0.40;0.40;;;;;;;23.20;11.24;102116.28;4993110;28;20121;-80
2022/04/16 10:38:51;;;;;;;0.20;0.20;;;;;;;23.17;11.20;102120.28;4992821;28;20058;-80
2022/04/16 10:41:20;;;;;;;0.20;0.20;;;;;;;23.18;11.18;102108.34;4997496;28;20438;-80
2022/04/16 10:43:59;;;;;;;0.15;0.15;;;;;;;23.21;11.42;102118.75;5012307;28;20049;-80
2022/04/16 10:46:48;;;;;;;0.20;0.20;;;;;;;23.22;11.25;102106.78;5012208;28;20030;-80
2022/04/16 10:49:14;;;;;;;0.17;0.17;;;;;;;23.19;11.05;102114.59;5012239;28;20084;-80
2022/04/16 10:51:40;;;;;;;0.20;0.20;;;;;;;23.17;11.05;102109.38;5012117;28;20037;-80
2022/04/16 10:54:10;;;;;;;0.20;0.20;;;;;;;23.14;11.13;102103.56;5012082;28;20465;-80
2022/04/16 10:56:39;;;;;;;0.20;0.20;;;;;;;23.14;11.00;102101.66;5032760;28;20498;-80
2022/04/16 10:59:05;;;;;;;0.20;0.20;;;;;;;23.15;10.97;102094.31;5034193;28;20045;-80
2022/04/16 11:01:30;;;;;;;0.20;0.20;;;;;;;23.15;10.94;102097.06;5035077;28;20506;-80
2022/04/16 11:03:56;;;;;;;0.20;0.20;;;;;;;23.16;10.69;102095.97;5033952;28;20029;-80
2022/04/16 11:06:34;;;;;;;0.20;0.20;;;;;;;23.16;10.84;102096.81;5034058;28;20036;-80
2022/04/16 11:09:00;;;;;;;0.22;0.22;;;;;;;23.18;10.71;102094.69;5048212;28;20026;-80
2022/04/16 11:11:25;;;;;;;0.17;0.17;;;;;;;23.20;10.76;102102.66;5033814;28;20026;-79
2022/04/16 11:13:51;;;;;;;0.20;0.20;;;;;;;23.21;10.83;102098.84;5034017;28;20460;-79
2022/04/16 11:16:21;;;;;;;1.45;0.20;;;;;;;23.21;10.78;102096.13;5033578;28;20428;-79
2022/04/16 11:18:47;;;;;;;0.30;0.30;;;;;;;23.21;10.58;102090.66;5033887;28;20033;-80
2022/04/16 11:21:23;;;;;;;0.22;0.22;;;;;;;23.21;10.51;102104.28;5035289;28;20018;-80
2022/04/16 11:23:50;;;;;;;0.20;0.20;;;;;;;23.17;10.53;102093.03;5032154;28;20409;-79
2022/04/16 11:34:57;;;;;;;0.10;0.10;;;;;;;23.21;10.40;102085.19;5033779;28;20107;-79
2022/04/16 11:37:23;;;;;;;0.15;0.15;;;;;;;23.21;10.44;102091.47;5032396;28;20040;-79
2022/04/16 11:40:02;;;;;;;0.15;0.15;;;;;;;23.24;10.43;102092.94;5033679;28;20033;-79
2022/04/16 11:42:29;;;;;;;0.20;0.20;;;;;;;23.21;10.46;102086.03;5019640;28;20052;-80
2022/04/16 11:44:55;;;;;;;0.20;0.20;;;;;;;23.25;10.32;102086.44;5013529;28;20033;-79
2022/04/16 11:47:23;;;;;;;0.25;0.25;;;;;;;23.24;10.21;102084.75;5012534;28;20026;-79